createdAt,value
2023-03-07T05:24:11.732Z,11.33
2023-03-07T05:26:40.813Z,11.21
2023-03-07T05:29:08.358Z,11.11
2023-03-07T05:31:36.591Z,11.00
2023-03-07T05:34:06.168Z,10.84
2023-03-07T05:36:34.188Z,10.68
2023-03-07T05:39:02.140Z,10.52
2023-03-07T05:41:30.183Z,10.42
2023-03-07T05:43:58.408Z,10.30
2023-03-07T05:46:26.882Z,10.22
2023-03-07T05:48:55.405Z,10.16
2023-03-07T05:51:23.375Z,10.05
2023-03-07T05:53:50.950Z,9.90
2023-03-07T05:56:19.162Z,9.76
2023-03-07T05:58:47.140Z,9.67
2023-03-07T06:01:15.296Z,9.63
2023-03-07T06:03:44.930Z,9.62
2023-03-07T06:06:13.139Z,9.68
2023-03-07T06:08:41.316Z,9.63
2023-03-07T06:11:11.060Z,9.64
2023-03-07T06:13:40.121Z,9.67
2023-03-07T06:16:07.894Z,9.71
2023-03-07T06:18:35.780Z,9.77
2023-03-07T06:21:09.036Z,9.83
2023-03-07T06:23:41.418Z,9.89
2023-03-07T06:26:15.586Z,9.91
2023-03-07T06:28:46.208Z,9.95
2023-03-07T06:31:19.114Z,9.90
2023-03-07T06:33:47.878Z,9.80
2023-03-07T06:36:20.272Z,9.75
2023-03-07T06:38:53.337Z,9.79
2023-03-07T06:41:21.496Z,9.89
2023-03-07T06:43:53.370Z,9.96
2023-03-07T06:46:26.761Z,10.06
2023-03-07T06:48:55.679Z,10.16
2023-03-07T06:51:24.594Z,10.23
2023-03-07T06:53:55.225Z,10.29
2023-03-07T06:56:23.695Z,10.31
2023-03-07T06:58:51.224Z,10.35
2023-03-07T07:01:21.265Z,10.38
2023-03-07T07:03:51.342Z,10.44
2023-03-07T07:06:19.848Z,10.48
2023-03-07T07:08:48.947Z,10.51
2023-03-07T07:11:16.945Z,10.52
2023-03-07T07:13:45.933Z,10.54
2023-03-07T07:16:18.180Z,10.57
2023-03-07T07:18:46.467Z,10.62
2023-03-07T07:21:14.260Z,10.64
2023-03-07T07:23:41.864Z,10.67
2023-03-07T07:26:10.303Z,10.73
2023-03-07T07:28:37.885Z,10.77
2023-03-07T07:31:08.076Z,10.80
2023-03-07T07:33:36.240Z,10.85
2023-03-07T07:36:07.125Z,10.91
2023-03-07T07:38:36.517Z,10.91
2023-03-07T07:41:04.985Z,10.92
2023-03-07T07:43:33.393Z,10.97
2023-03-07T07:46:17.506Z,11.02
2023-03-07T07:48:48.154Z,11.10
2023-03-07T07:51:17.256Z,11.18
2023-03-07T07:53:45.206Z,11.24
2023-03-07T07:56:13.531Z,11.34
2023-03-07T07:58:41.209Z,11.44
2023-03-07T08:01:20.549Z,11.54
2023-03-07T08:03:48.747Z,11.62
2023-03-07T08:06:23.068Z,11.71
2023-03-07T08:08:51.866Z,11.81
2023-03-07T08:11:20.769Z,11.92
2023-03-07T08:13:48.328Z,12.03
2023-03-07T08:16:22.741Z,12.14
2023-03-07T08:18:56.611Z,12.20
2023-03-07T08:21:26.292Z,12.27
2023-03-07T08:23:55.211Z,12.32
2023-03-07T08:26:23.637Z,12.39
2023-03-07T08:28:51.157Z,12.44
2023-03-07T08:31:23.945Z,12.52
2023-03-07T08:33:52.678Z,12.61
2023-03-07T08:36:21.106Z,12.71
2023-03-07T08:38:51.744Z,12.83
2023-03-07T08:41:21.789Z,12.93
2023-03-07T08:43:50.094Z,12.98
2023-03-07T08:46:18.190Z,12.99
2023-03-07T08:48:46.529Z,13.04
2023-03-07T08:51:17.358Z,13.10
2023-03-07T08:53:46.319Z,13.25
2023-03-07T08:56:17.941Z,13.28
2023-03-07T08:58:46.019Z,13.32
2023-03-07T09:01:14.070Z,13.40
2023-03-07T09:03:42.722Z,13.39
2023-03-07T09:06:17.970Z,13.46
2023-03-07T09:08:47.302Z,13.54
2023-03-07T09:11:16.441Z,13.53
2023-03-07T09:13:51.817Z,13.56
2023-03-07T09:16:21.780Z,13.63
2023-03-07T09:18:49.666Z,13.69
2023-03-07T09:21:17.550Z,13.72
2023-03-07T09:23:45.357Z,13.81
2023-03-07T09:26:13.393Z,13.93
2023-03-07T09:28:41.682Z,14.06
2023-03-07T09:31:12.214Z,14.07
2023-03-07T09:33:41.173Z,14.11
2023-03-07T09:36:12.110Z,14.07
2023-03-07T09:38:40.598Z,14.10
2023-03-07T09:41:33.456Z,14.15
2023-03-07T09:44:48.345Z,14.24
2023-03-07T09:47:44.487Z,14.37
2023-03-07T09:50:20.175Z,14.39
2023-03-07T09:52:47.922Z,14.43
2023-03-07T09:55:20.817Z,14.46
2023-03-07T09:57:55.371Z,14.47
2023-03-07T10:00:41.333Z,14.42
2023-03-07T10:03:33.914Z,14.32
2023-03-07T10:06:39.681Z,14.19
2023-03-07T10:09:29.326Z,14.14
2023-03-07T10:12:29.058Z,14.15
2023-03-07T10:15:18.365Z,14.21
2023-03-07T10:18:04.900Z,14.25
2023-03-07T10:20:32.684Z,14.34
2023-03-07T10:23:29.564Z,14.44
2023-03-07T10:26:24.222Z,14.50
2023-03-07T10:28:52.729Z,14.56
2023-03-07T10:31:46.065Z,14.57
2023-03-07T10:34:32.580Z,14.55
2023-03-07T10:37:12.671Z,14.61
2023-03-07T10:39:49.669Z,14.64
2023-03-07T10:42:20.429Z,14.71
2023-03-07T10:44:49.079Z,14.79
2023-03-07T10:47:25.502Z,14.87
2023-03-07T10:50:36.620Z,14.93
2023-03-07T10:53:09.591Z,14.93
2023-03-07T10:55:42.617Z,15.06
2023-03-07T10:58:26.026Z,15.16
2023-03-07T11:01:22.106Z,15.19
2023-03-07T11:04:17.718Z,15.25
2023-03-07T11:06:52.378Z,15.29
2023-03-07T11:09:45.942Z,15.29
2023-03-07T11:12:21.048Z,15.33
2023-03-07T11:14:55.592Z,15.32
2023-03-07T11:17:40.558Z,15.33
2023-03-07T11:20:30.506Z,15.36
2023-03-07T11:23:30.873Z,15.46
2023-03-07T11:26:21.745Z,15.55
2023-03-07T11:29:09.652Z,15.71
2023-03-07T11:32:05.380Z,15.82
2023-03-07T11:34:35.546Z,15.89
2023-03-07T11:37:34.418Z,15.97
2023-03-07T11:40:56.518Z,16.03
2023-03-07T11:43:41.501Z,16.13
2023-03-07T11:46:40.151Z,16.20
2023-03-07T11:49:25.118Z,16.20
2023-03-07T11:52:25.646Z,16.15
2023-03-07T11:55:04.568Z,16.06
2023-03-07T11:57:58.649Z,15.97
2023-03-07T12:00:32.431Z,15.96
2023-03-07T12:03:30.424Z,16.01
2023-03-07T12:06:18.967Z,16.22
2023-03-07T12:09:23.609Z,16.50
2023-03-07T12:12:19.838Z,16.75
2023-03-07T12:15:27.038Z,16.95
2023-03-07T12:18:04.299Z,17.05
2023-03-07T12:21:10.153Z,17.07
2023-03-07T12:23:49.032Z,17.05
2023-03-07T12:26:39.938Z,16.98
2023-03-07T12:29:38.667Z,16.91
2023-03-07T12:32:27.117Z,16.98
2023-03-07T12:35:22.637Z,17.09
2023-03-07T12:38:08.070Z,17.31
2023-03-07T12:40:46.816Z,17.34
2023-03-07T12:43:51.465Z,17.40
2023-03-07T12:46:38.979Z,17.47
2023-03-07T12:49:41.006Z,17.68
2023-03-07T12:52:31.979Z,17.66
2023-03-07T12:55:27.059Z,17.55
2023-03-07T12:58:22.371Z,17.34
2023-03-07T13:01:02.920Z,17.05
2023-03-07T13:04:22.062Z,16.93
2023-03-07T13:06:50.604Z,16.93
2023-03-07T13:09:25.064Z,17.00
2023-03-07T13:12:16.259Z,16.88
2023-03-07T13:14:49.162Z,16.90
2023-03-07T13:17:31.706Z,16.82
2023-03-07T13:20:35.974Z,16.78
2023-03-07T13:23:25.948Z,16.88
2023-03-07T13:26:00.546Z,16.86
2023-03-07T13:28:51.306Z,16.92
2023-03-07T13:31:18.934Z,16.95
2023-03-07T13:33:47.988Z,16.99
2023-03-07T13:36:39.193Z,16.93
2023-03-07T13:39:58.066Z,16.65
2023-03-07T13:42:48.236Z,16.52
2023-03-07T13:45:37.423Z,16.41
2023-03-07T13:48:36.099Z,16.39
2023-03-07T13:51:08.349Z,16.39
2023-03-07T13:53:54.847Z,16.44
2023-03-07T13:56:27.234Z,16.50
2023-03-07T13:59:28.342Z,16.52
2023-03-07T14:02:04.597Z,16.52
2023-03-07T14:04:54.365Z,16.57
2023-03-07T14:07:39.786Z,16.67
2023-03-07T14:10:24.292Z,16.79
2023-03-07T14:13:05.224Z,16.87
2023-03-07T14:16:10.941Z,16.93
2023-03-07T14:19:09.090Z,17.13
2023-03-07T14:21:57.394Z,17.41
2023-03-07T14:24:52.631Z,17.63
2023-03-07T14:27:20.450Z,18.04
2023-03-07T14:29:57.249Z,18.23
2023-03-07T14:32:31.381Z,18.40
2023-03-07T14:34:59.852Z,18.55
2023-03-07T14:37:30.793Z,18.56
2023-03-07T14:40:25.871Z,18.53
2023-03-07T14:43:20.072Z,18.58
2023-03-07T14:46:24.344Z,18.87
2023-03-07T14:49:28.135Z,19.14
2023-03-07T14:51:55.589Z,19.29
2023-03-07T14:54:30.918Z,19.25
2023-03-07T14:57:00.313Z,19.03
2023-03-07T14:59:29.354Z,18.78
2023-03-07T15:01:58.274Z,18.54
2023-03-07T15:04:32.534Z,18.38
2023-03-07T15:07:04.686Z,18.23
2023-03-07T15:09:34.271Z,18.10
2023-03-07T15:12:15.711Z,18.00
2023-03-07T15:14:56.770Z,17.94
2023-03-07T15:17:31.056Z,17.97
2023-03-07T15:20:23.426Z,18.00
2023-03-07T15:22:53.117Z,17.99
2023-03-07T15:25:25.976Z,18.01
2023-03-07T15:28:06.976Z,17.89
2023-03-07T15:30:38.055Z,17.82
2023-03-07T15:33:13.440Z,17.76
2023-03-07T15:35:42.624Z,17.73
2023-03-07T15:38:26.250Z,17.76
2023-03-07T15:40:54.028Z,17.79
2023-03-07T15:43:21.616Z,17.80
2023-03-07T15:46:14.241Z,17.68
2023-03-07T15:48:50.812Z,17.56
2023-03-07T15:51:22.844Z,17.53
2023-03-07T15:54:15.792Z,17.57
2023-03-07T15:56:45.461Z,17.63
2023-03-07T15:59:15.682Z,17.64
2023-03-07T16:01:43.662Z,17.57
2023-03-07T16:04:36.155Z,17.49
2023-03-07T16:07:05.162Z,17.41
2023-03-07T16:09:32.576Z,17.33
2023-03-07T16:12:01.193Z,17.26
2023-03-07T16:14:32.747Z,17.16
2023-03-07T16:17:09.574Z,17.05
2023-03-07T16:19:37.092Z,16.92
2023-03-07T16:22:09.358Z,16.76
2023-03-07T16:24:37.029Z,16.61
2023-03-07T16:27:04.820Z,16.45
2023-03-07T16:29:32.334Z,16.31
2023-03-07T16:32:01.391Z,16.15
2023-03-07T16:34:28.923Z,16.00
2023-03-07T16:36:56.820Z,15.87
2023-03-07T16:39:25.205Z,15.75
2023-03-07T16:41:53.016Z,15.59
2023-03-07T16:44:22.334Z,15.48
2023-03-07T16:47:12.561Z,15.37
2023-03-07T16:49:40.382Z,15.23
2023-03-07T16:52:12.308Z,15.14
2023-03-07T16:54:41.021Z,15.05
2023-03-07T16:57:17.196Z,14.95
2023-03-07T16:59:48.020Z,14.85
2023-03-07T17:02:21.575Z,14.75
2023-03-07T17:04:49.163Z,14.68
2023-03-07T17:07:22.978Z,14.59
2023-03-07T17:09:50.816Z,14.53
2023-03-07T17:12:25.731Z,14.50
2023-03-07T17:14:53.692Z,14.63
2023-03-07T17:17:30.703Z,14.86
2023-03-07T17:19:58.121Z,15.09
2023-03-07T17:22:26.056Z,15.11
2023-03-07T17:24:53.562Z,14.99
2023-03-07T17:27:21.986Z,14.83
2023-03-07T17:29:54.593Z,14.67
2023-03-07T17:32:22.668Z,14.54
2023-03-07T17:34:50.139Z,14.41
2023-03-07T17:37:18.146Z,14.30
2023-03-07T17:39:46.057Z,14.20
2023-03-07T17:42:14.716Z,14.10
2023-03-07T17:44:42.669Z,14.01
2023-03-07T17:47:11.572Z,13.95
2023-03-07T17:49:41.023Z,13.88
2023-03-07T17:52:09.787Z,13.83
2023-03-07T17:54:37.442Z,13.81
2023-03-07T17:57:05.328Z,13.76
2023-03-07T17:59:33.127Z,13.74
2023-03-07T18:02:01.106Z,13.69
2023-03-07T18:04:31.266Z,13.65
2023-03-07T18:07:00.240Z,13.59
2023-03-07T18:09:27.783Z,13.54
2023-03-07T18:11:55.544Z,13.50
2023-03-07T18:14:23.610Z,13.45
2023-03-07T18:16:51.552Z,13.41
2023-03-07T18:19:26.391Z,13.38
2023-03-07T18:21:55.807Z,13.35
2023-03-07T18:24:26.945Z,13.32
2023-03-07T18:26:57.554Z,13.26
2023-03-07T18:29:27.150Z,13.25
2023-03-07T18:31:55.014Z,13.22
2023-03-07T18:34:24.825Z,13.21
2023-03-07T18:36:54.427Z,13.19
2023-03-07T18:39:24.083Z,13.19
2023-03-07T18:41:52.098Z,13.16
2023-03-07T18:44:19.803Z,13.15
2023-03-07T18:46:47.701Z,13.13
2023-03-07T18:49:16.328Z,13.13
2023-03-07T18:51:46.079Z,13.12
2023-03-07T18:54:14.236Z,13.12
2023-03-07T18:56:45.082Z,13.13
2023-03-07T18:59:12.662Z,13.16
2023-03-07T19:01:41.144Z,13.20
2023-03-07T19:04:09.225Z,13.24
2023-03-07T19:06:40.730Z,13.25
2023-03-07T19:09:16.476Z,13.31
2023-03-07T19:11:44.898Z,13.35
2023-03-07T19:14:12.798Z,13.36
2023-03-07T19:16:40.919Z,13.35
2023-03-07T19:19:08.433Z,13.34
2023-03-07T19:21:36.296Z,13.35
2023-03-07T19:24:05.777Z,13.33
2023-03-07T19:26:33.714Z,13.31
2023-03-07T19:29:01.319Z,13.30
2023-03-07T19:31:32.052Z,13.29
2023-03-07T19:34:02.031Z,13.27
2023-03-07T19:36:32.164Z,13.27
2023-03-07T19:38:59.792Z,13.29
2023-03-07T19:41:30.172Z,13.32
2023-03-07T19:43:59.961Z,13.36
2023-03-07T19:46:28.252Z,13.39
2023-03-07T19:48:56.096Z,13.41
2023-03-07T19:51:26.514Z,13.42
2023-03-07T19:53:57.291Z,13.45
2023-03-07T19:56:29.370Z,13.49
2023-03-07T19:58:59.273Z,13.51
2023-03-07T20:01:29.325Z,13.52
2023-03-07T20:03:57.258Z,13.52
2023-03-07T20:06:29.918Z,13.53
2023-03-07T20:09:00.318Z,13.56
2023-03-07T20:11:31.838Z,13.59
2023-03-07T20:14:03.527Z,13.61
2023-03-07T20:16:33.761Z,13.62
2023-03-07T20:19:07.594Z,13.64
2023-03-07T20:21:37.263Z,13.65
